createdAt,value
2023-12-14T00:00:38.997Z,638.00
2023-12-14T00:01:39.113Z,641.00
2023-12-14T00:02:39.307Z,643.00
2023-12-14T00:03:39.187Z,641.00
2023-12-14T00:04:39.269Z,641.00
2023-12-14T00:05:39.314Z,639.00
2023-12-14T00:06:39.380Z,642.00
2023-12-14T00:07:39.453Z,639.00
2023-12-14T00:08:39.733Z,640.00
2023-12-14T00:09:39.464Z,640.00
2023-12-14T00:10:39.592Z,641.00
2023-12-14T00:11:39.580Z,640.00
2023-12-14T00:12:39.665Z,641.00
2023-12-14T00:13:39.775Z,642.00
2023-12-14T00:14:39.736Z,643.00
2023-12-14T00:15:39.806Z,641.00
2023-12-14T00:16:39.920Z,639.00
2023-12-14T00:17:39.967Z,638.00
2023-12-14T00:18:39.983Z,640.00
2023-12-14T00:19:40.093Z,636.00
2023-12-14T00:20:40.093Z,640.00
2023-12-14T00:21:40.131Z,639.00
2023-12-14T00:22:40.254Z,639.00
2023-12-14T00:23:40.262Z,639.00
2023-12-14T00:24:40.306Z,641.00
2023-12-14T00:25:40.410Z,637.00
2023-12-14T00:26:40.417Z,638.00
2023-12-14T00:27:40.490Z,637.00
2023-12-14T00:28:40.617Z,636.00
2023-12-14T00:29:40.585Z,637.00
2023-12-14T00:30:40.688Z,636.00
2023-12-14T00:31:40.798Z,633.00
2023-12-14T00:32:40.836Z,633.00
2023-12-14T00:33:41.308Z,635.00
2023-12-14T00:34:40.948Z,638.00
2023-12-14T00:35:40.980Z,633.00
2023-12-14T00:36:41.049Z,634.00
2023-12-14T00:37:41.144Z,634.00
2023-12-14T00:38:41.163Z,634.00
2023-12-14T00:39:41.212Z,635.00
2023-12-14T00:40:41.294Z,630.00
2023-12-14T00:41:41.335Z,635.00
2023-12-14T00:42:41.460Z,630.00
2023-12-14T00:43:41.570Z,635.00
2023-12-14T00:44:41.619Z,632.00
2023-12-14T00:45:41.630Z,635.00
2023-12-14T00:46:41.771Z,633.00
2023-12-14T00:47:41.832Z,630.00
2023-12-14T00:48:41.933Z,633.00
2023-12-14T00:49:41.917Z,635.00
2023-12-14T00:50:41.994Z,632.00
2023-12-14T00:51:42.063Z,632.00
2023-12-14T00:52:42.171Z,628.00
2023-12-14T00:53:42.236Z,629.00
2023-12-14T00:54:42.263Z,631.00
2023-12-14T00:55:42.426Z,628.00
2023-12-14T00:56:42.427Z,632.00
2023-12-14T00:57:42.494Z,630.00
2023-12-14T00:58:42.595Z,627.00
2023-12-14T00:59:42.702Z,631.00
2023-12-14T01:00:42.692Z,628.00
2023-12-14T01:01:42.848Z,629.00
2023-12-14T01:02:42.846Z,630.00
2023-12-14T01:03:43.223Z,631.00
2023-12-14T01:04:43.044Z,625.00
2023-12-14T01:05:43.020Z,631.00
2023-12-14T01:06:43.099Z,632.00
2023-12-14T01:07:43.224Z,630.00
2023-12-14T01:08:43.745Z,629.00
2023-12-14T01:09:43.281Z,628.00
2023-12-14T01:10:43.348Z,632.00
2023-12-14T01:11:43.401Z,630.00
2023-12-14T01:12:43.496Z,630.00
2023-12-14T01:13:43.589Z,630.00
2023-12-14T01:14:43.629Z,629.00
2023-12-14T01:15:43.712Z,630.00
2023-12-14T01:16:43.764Z,627.00
2023-12-14T01:17:44.592Z,625.00
2023-12-14T01:18:44.407Z,629.00
2023-12-14T01:19:44.034Z,627.00
2023-12-14T01:20:43.978Z,627.00
2023-12-14T01:21:44.084Z,630.00
2023-12-14T01:22:44.163Z,629.00
2023-12-14T01:23:44.262Z,628.00
2023-12-14T01:24:44.316Z,626.00
2023-12-14T01:25:44.378Z,626.00
2023-12-14T01:26:44.435Z,627.00
2023-12-14T01:27:44.477Z,627.00
2023-12-14T01:28:44.486Z,629.00
2023-12-14T01:29:44.521Z,628.00
2023-12-14T01:30:44.614Z,625.00
2023-12-14T01:31:44.637Z,625.00
2023-12-14T01:32:44.690Z,627.00
2023-12-14T01:33:45.253Z,625.00
2023-12-14T01:34:44.870Z,626.00
2023-12-14T01:35:44.848Z,624.00
2023-12-14T01:36:44.947Z,627.00
2023-12-14T01:37:45.053Z,624.00
2023-12-14T01:38:45.016Z,624.00
2023-12-14T01:39:45.049Z,622.00
2023-12-14T01:40:45.186Z,623.00
2023-12-14T01:41:45.174Z,625.00
2023-12-14T01:42:45.259Z,622.00
2023-12-14T01:43:45.331Z,626.00
2023-12-14T01:44:45.381Z,624.00
2023-12-14T01:45:45.371Z,625.00
2023-12-14T01:46:45.496Z,626.00
2023-12-14T01:47:45.473Z,625.00
2023-12-14T01:48:45.534Z,623.00
2023-12-14T01:49:45.622Z,622.00
2023-12-14T01:50:45.622Z,625.00
2023-12-14T01:51:45.638Z,622.00
2023-12-14T01:52:45.706Z,623.00
2023-12-14T01:53:45.739Z,626.00
2023-12-14T01:54:45.755Z,623.00
2023-12-14T01:55:45.787Z,621.00
2023-12-14T01:56:45.772Z,622.00
2023-12-14T01:57:45.772Z,620.00
2023-12-14T01:58:45.874Z,623.00
2023-12-14T01:59:45.842Z,625.00
2023-12-14T02:00:45.875Z,623.00
2023-12-14T02:01:45.865Z,620.00
2023-12-14T02:02:45.889Z,625.00
2023-12-14T02:03:45.913Z,623.00
2023-12-14T02:04:45.989Z,625.00
2023-12-14T02:05:45.970Z,621.00
2023-12-14T02:06:45.960Z,618.00
2023-12-14T02:07:46.011Z,621.00
2023-12-14T02:08:46.281Z,623.00
2023-12-14T02:09:46.018Z,623.00
2023-12-14T02:10:46.304Z,618.00
2023-12-14T02:11:46.141Z,622.00
2023-12-14T02:12:46.099Z,624.00
2023-12-14T02:13:46.166Z,624.00
2023-12-14T02:14:46.161Z,619.00
2023-12-14T02:15:46.188Z,621.00
2023-12-14T02:16:46.240Z,623.00
2023-12-14T02:17:46.266Z,624.00
2023-12-14T02:18:46.278Z,619.00
2023-12-14T02:19:46.250Z,623.00
2023-12-14T02:20:46.322Z,621.00
2023-12-14T02:21:46.311Z,622.00
2023-12-14T02:22:46.325Z,621.00
2023-12-14T02:23:46.396Z,621.00
2023-12-14T02:24:46.328Z,620.00
2023-12-14T02:25:46.426Z,622.00
2023-12-14T02:27:01.858Z,619.00
2023-12-14T02:27:47.386Z,620.00
2023-12-14T02:28:46.398Z,620.00
2023-12-14T02:29:46.380Z,620.00
2023-12-14T02:30:46.413Z,621.00
2023-12-14T02:31:46.386Z,622.00
2023-12-14T02:32:46.431Z,620.00
2023-12-14T02:33:46.430Z,624.00
2023-12-14T02:34:46.372Z,623.00
2023-12-14T02:35:46.409Z,622.00
2023-12-14T02:36:46.372Z,617.00
2023-12-14T02:37:46.498Z,624.00
2023-12-14T02:38:46.664Z,619.00
2023-12-14T02:39:46.441Z,618.00
2023-12-14T02:40:46.450Z,619.00
2023-12-14T02:41:46.401Z,621.00
2023-12-14T02:42:46.430Z,621.00
2023-12-14T02:43:46.460Z,617.00
2023-12-14T02:44:46.413Z,621.00
2023-12-14T02:45:46.433Z,617.00
2023-12-14T02:46:46.489Z,614.00
2023-12-14T02:47:46.466Z,615.00
2023-12-14T02:48:46.474Z,617.00
2023-12-14T02:49:46.485Z,618.00
2023-12-14T02:50:46.409Z,619.00
2023-12-14T02:51:46.428Z,618.00
2023-12-14T02:52:46.408Z,617.00
2023-12-14T02:53:46.763Z,619.00
2023-12-14T02:54:46.440Z,617.00
2023-12-14T02:55:46.464Z,617.00
2023-12-14T02:56:46.459Z,615.00
2023-12-14T02:57:46.398Z,619.00
2023-12-14T02:58:46.455Z,618.00
2023-12-14T02:59:46.424Z,616.00
2023-12-14T03:00:46.469Z,620.00
2023-12-14T03:01:46.473Z,617.00
2023-12-14T03:02:46.445Z,619.00
2023-12-14T03:03:46.826Z,618.00
2023-12-14T03:04:46.476Z,619.00
2023-12-14T03:05:46.492Z,619.00
2023-12-14T03:06:46.469Z,617.00
2023-12-14T03:07:46.462Z,617.00
2023-12-14T03:08:46.731Z,617.00
2023-12-14T03:09:46.477Z,613.00
2023-12-14T03:10:46.478Z,621.00
2023-12-14T03:11:46.458Z,616.00
2023-12-14T03:12:46.511Z,614.00
2023-12-14T03:13:46.510Z,617.00
2023-12-14T03:14:46.507Z,617.00
2023-12-14T03:15:46.492Z,620.00
2023-12-14T03:16:46.506Z,618.00
2023-12-14T03:17:46.568Z,619.00
2023-12-14T03:18:46.524Z,620.00
2023-12-14T03:19:46.610Z,619.00
2023-12-14T03:20:46.572Z,622.00
2023-12-14T03:21:46.522Z,621.00
2023-12-14T03:22:46.570Z,617.00
2023-12-14T03:23:46.785Z,618.00
2023-12-14T03:24:46.551Z,614.00
2023-12-14T03:25:46.722Z,615.00
2023-12-14T03:26:46.560Z,619.00
2023-12-14T03:27:46.577Z,615.00
2023-12-14T03:28:46.662Z,617.00
2023-12-14T03:29:46.595Z,617.00
2023-12-14T03:30:46.631Z,617.00
2023-12-14T03:31:46.621Z,615.00
2023-12-14T03:32:46.689Z,615.00
2023-12-14T03:33:46.667Z,615.00
2023-12-14T03:34:46.679Z,615.00
2023-12-14T03:35:46.682Z,617.00
2023-12-14T03:36:46.642Z,615.00
2023-12-14T03:37:46.672Z,617.00
2023-12-14T03:38:46.663Z,615.00
2023-12-14T03:39:47.276Z,617.00
2023-12-14T03:40:46.714Z,615.00
2023-12-14T03:41:46.709Z,617.00
2023-12-14T03:42:46.713Z,613.00
2023-12-14T03:43:46.812Z,617.00
2023-12-14T03:44:46.757Z,616.00
2023-12-14T03:45:46.743Z,616.00
2023-12-14T03:46:46.790Z,614.00
2023-12-14T03:47:46.791Z,618.00
2023-12-14T03:48:46.806Z,613.00
2023-12-14T03:49:46.778Z,613.00
2023-12-14T03:50:46.768Z,613.00
2023-12-14T03:51:46.844Z,611.00
2023-12-14T03:52:46.836Z,619.00
2023-12-14T03:53:46.870Z,618.00
2023-12-14T03:54:46.866Z,615.00
2023-12-14T03:55:46.850Z,616.00
2023-12-14T03:56:46.893Z,616.00
2023-12-14T03:57:46.898Z,615.00
2023-12-14T03:58:47.348Z,616.00
2023-12-14T03:59:46.872Z,613.00
2023-12-14T04:00:46.895Z,616.00
2023-12-14T04:01:46.917Z,618.00
2023-12-14T04:02:46.958Z,614.00
2023-12-14T04:03:46.944Z,617.00
2023-12-14T04:04:46.963Z,615.00
2023-12-14T04:05:46.978Z,619.00
2023-12-14T04:06:46.962Z,617.00
2023-12-14T04:07:47.103Z,615.00
2023-12-14T04:08:47.276Z,613.00
2023-12-14T04:09:47.007Z,615.00
2023-12-14T04:10:46.998Z,614.00
2023-12-14T04:11:47.046Z,615.00
2023-12-14T04:12:47.051Z,617.00
2023-12-14T04:13:47.351Z,618.00
2023-12-14T04:14:47.122Z,613.00
2023-12-14T04:15:47.122Z,616.00
2023-12-14T04:16:47.165Z,616.00
2023-12-14T04:17:47.207Z,616.00
2023-12-14T04:18:47.364Z,611.00
2023-12-14T04:19:47.184Z,612.00
2023-12-14T04:20:47.156Z,616.00
2023-12-14T04:21:47.248Z,614.00
2023-12-14T04:22:47.232Z,614.00
2023-12-14T04:23:47.273Z,614.00
2023-12-14T04:24:47.229Z,618.00
2023-12-14T04:25:47.278Z,611.00
2023-12-14T04:26:47.248Z,614.00
2023-12-14T04:27:47.251Z,611.00
2023-12-14T04:28:47.352Z,615.00
2023-12-14T04:29:47.263Z,614.00
2023-12-14T04:30:54.582Z,600.00
2023-12-14T04:32:01.914Z,600.00
2023-12-14T04:33:01.840Z,600.00
2023-12-14T04:34:01.912Z,600.00
2023-12-14T04:35:01.913Z,600.00
2023-12-14T04:36:01.844Z,600.00
2023-12-14T04:37:01.849Z,602.00
2023-12-14T04:38:01.931Z,601.00
2023-12-14T04:39:01.874Z,600.00
2023-12-14T04:40:01.827Z,601.00
2023-12-14T04:41:01.920Z,606.00
2023-12-14T04:42:01.904Z,605.00
2023-12-14T04:43:01.835Z,604.00
2023-12-14T04:44:01.912Z,601.00
2023-12-14T04:45:01.936Z,602.00
2023-12-14T04:46:01.851Z,603.00
2023-12-14T04:47:01.890Z,605.00
2023-12-14T04:48:02.014Z,607.00
2023-12-14T04:49:01.957Z,602.00
2023-12-14T04:50:01.944Z,606.00
2023-12-14T04:51:01.885Z,607.00
2023-12-14T04:52:01.877Z,609.00
2023-12-14T04:53:01.875Z,603.00
2023-12-14T04:54:01.966Z,606.00
2023-12-14T04:55:01.936Z,606.00
2023-12-14T04:56:01.957Z,603.00
2023-12-14T04:57:01.867Z,603.00
2023-12-14T04:58:01.902Z,608.00
2023-12-14T04:59:01.882Z,612.00
2023-12-14T05:00:01.940Z,608.00
2023-12-14T05:01:01.912Z,608.00
2023-12-14T05:02:01.869Z,608.00
2023-12-14T05:03:01.874Z,606.00
2023-12-14T05:04:01.978Z,610.00
2023-12-14T05:05:01.973Z,607.00
2023-12-14T05:06:01.965Z,605.00
2023-12-14T05:07:01.936Z,606.00
2023-12-14T05:08:01.992Z,607.00
2023-12-14T05:09:01.962Z,606.00
2023-12-14T05:10:01.945Z,607.00
2023-12-14T05:11:01.977Z,601.00
2023-12-14T05:12:01.921Z,602.00
2023-12-14T05:13:01.926Z,601.00
2023-12-14T05:14:02.020Z,603.00
2023-12-14T05:15:02.039Z,603.00
2023-12-14T05:16:01.900Z,600.00
2023-12-14T05:17:01.932Z,605.00
2023-12-14T05:18:02.087Z,606.00
2023-12-14T05:19:02.039Z,603.00
2023-12-14T05:20:02.021Z,604.00
2023-12-14T05:21:01.908Z,608.00
2023-12-14T05:22:01.881Z,606.00
2023-12-14T05:23:02.026Z,605.00
2023-12-14T05:24:01.915Z,600.00
2023-12-14T05:25:01.982Z,603.00
2023-12-14T05:26:02.555Z,601.00
2023-12-14T05:27:01.956Z,604.00
2023-12-14T05:28:02.028Z,603.00
2023-12-14T05:29:02.016Z,605.00
2023-12-14T05:30:01.982Z,601.00
2023-12-14T05:31:02.018Z,603.00
2023-12-14T05:32:01.964Z,607.00
2023-12-14T05:33:02.018Z,600.00
2023-12-14T05:34:02.087Z,601.00
2023-12-14T05:35:02.000Z,601.00
2023-12-14T05:36:01.948Z,603.00
2023-12-14T05:37:01.923Z,604.00
2023-12-14T05:38:02.029Z,603.00
2023-12-14T05:39:01.957Z,606.00
2023-12-14T05:40:01.928Z,601.00
2023-12-14T05:41:01.976Z,600.00
2023-12-14T05:42:02.037Z,603.00
2023-12-14T05:43:01.976Z,600.00
2023-12-14T05:44:02.076Z,601.00
2023-12-14T05:45:02.124Z,601.00
2023-12-14T05:46:02.004Z,605.00
2023-12-14T05:47:01.983Z,606.00
2023-12-14T05:48:02.060Z,605.00
2023-12-14T05:49:02.046Z,606.00
2023-12-14T05:50:02.101Z,606.00
2023-12-14T05:51:02.007Z,608.00
2023-12-14T05:52:02.034Z,605.00
2023-12-14T05:53:02.161Z,600.00
2023-12-14T05:54:02.121Z,600.00
2023-12-14T05:55:04.843Z,600.00
2023-12-14T05:56:02.185Z,600.00
2023-12-14T05:57:02.197Z,602.00
2023-12-14T05:58:02.181Z,601.00
2023-12-14T05:59:02.588Z,602.00
2023-12-14T06:00:02.194Z,602.00
2023-12-14T06:01:02.201Z,600.00
2023-12-14T06:02:02.411Z,601.00
2023-12-14T06:03:02.271Z,601.00
2023-12-14T06:04:02.206Z,600.00
2023-12-14T06:05:02.220Z,600.00
2023-12-14T06:06:02.233Z,600.00
2023-12-14T06:07:03.039Z,600.00
2023-12-14T06:08:02.238Z,601.00
2023-12-14T06:09:02.458Z,600.00
2023-12-14T06:10:02.205Z,601.00
2023-12-14T06:11:02.230Z,600.00
2023-12-14T06:12:02.192Z,600.00
2023-12-14T06:13:02.229Z,600.00
2023-12-14T06:14:02.222Z,600.00
2023-12-14T06:15:02.200Z,603.00
2023-12-14T06:16:02.226Z,601.00
2023-12-14T06:17:02.264Z,601.00
2023-12-14T06:18:02.351Z,601.00
2023-12-14T06:19:02.366Z,601.00
2023-12-14T06:20:02.363Z,601.00
2023-12-14T06:21:02.210Z,601.00
2023-12-14T06:22:02.223Z,602.00
2023-12-14T06:23:02.239Z,601.00
2023-12-14T06:24:02.244Z,602.00
2023-12-14T06:25:02.507Z,603.00
2023-12-14T06:26:02.208Z,600.00
2023-12-14T06:27:02.204Z,602.00
2023-12-14T06:28:02.241Z,603.00
2023-12-14T06:29:02.453Z,605.00
2023-12-14T06:30:02.259Z,606.00
2023-12-14T06:31:02.275Z,604.00
2023-12-14T06:32:02.344Z,604.00
2023-12-14T06:33:02.358Z,609.00
2023-12-14T06:34:02.312Z,612.00
2023-12-14T06:35:02.450Z,615.00
2023-12-14T06:36:02.344Z,613.00
2023-12-14T06:37:02.379Z,615.00
2023-12-14T06:38:02.499Z,617.00
2023-12-14T06:39:02.501Z,616.00
2023-12-14T06:40:02.529Z,619.00
2023-12-14T06:41:02.636Z,620.00
2023-12-14T06:42:02.668Z,620.00
2023-12-14T06:43:02.674Z,620.00
2023-12-14T06:44:02.798Z,618.00
2023-12-14T06:45:02.788Z,621.00
2023-12-14T06:46:02.855Z,621.00
2023-12-14T06:47:02.933Z,618.00
2023-12-14T06:48:03.022Z,619.00
2023-12-14T06:49:03.150Z,624.00
2023-12-14T06:50:03.555Z,628.00
2023-12-14T06:51:03.092Z,634.00
2023-12-14T06:52:03.091Z,639.00
2023-12-14T06:53:03.215Z,654.00
2023-12-14T06:54:03.275Z,661.00
2023-12-14T06:55:03.522Z,647.00
2023-12-14T06:56:03.332Z,653.00
2023-12-14T06:57:03.285Z,660.00
2023-12-14T06:58:03.350Z,675.00
2023-12-14T06:59:03.452Z,690.00
2023-12-14T07:00:03.544Z,705.00
2023-12-14T07:01:03.471Z,705.00
2023-12-14T07:02:03.470Z,720.00
2023-12-14T07:03:03.452Z,727.00
2023-12-14T07:04:03.450Z,735.00
2023-12-14T07:05:03.665Z,745.00
2023-12-14T07:06:03.492Z,747.00
2023-12-14T07:07:03.462Z,741.00
2023-12-14T07:08:03.506Z,758.00
2023-12-14T07:09:03.467Z,764.00
2023-12-14T07:10:03.557Z,776.00
2023-12-14T07:11:03.485Z,751.00
2023-12-14T07:12:03.560Z,759.00
2023-12-14T07:13:03.549Z,781.00
2023-12-14T07:14:03.595Z,781.00
2023-12-14T07:15:04.019Z,786.00
2023-12-14T07:16:03.662Z,780.00
2023-12-14T07:17:03.762Z,789.00
2023-12-14T07:18:03.845Z,802.00
2023-12-14T07:19:04.041Z,808.00
2023-12-14T07:20:04.024Z,833.00
2023-12-14T07:21:03.955Z,827.00
2023-12-14T07:22:04.013Z,830.00
2023-12-14T07:23:04.112Z,822.00
2023-12-14T07:24:56.748Z,600.00
2023-12-14T07:25:53.843Z,600.00
2023-12-14T07:26:52.829Z,600.00
2023-12-14T07:27:52.818Z,600.00
2023-12-14T07:28:52.875Z,600.00
2023-12-14T07:29:52.947Z,600.00
2023-12-14T07:30:52.895Z,606.00
2023-12-14T07:31:52.900Z,603.00
2023-12-14T07:32:52.876Z,600.00
2023-12-14T07:33:52.933Z,600.00
2023-12-14T07:34:52.922Z,600.00
2023-12-14T07:35:52.845Z,600.00
2023-12-14T07:36:52.861Z,602.00
2023-12-14T07:37:52.892Z,601.00
2023-12-14T07:38:55.275Z,608.00
2023-12-14T07:39:52.877Z,612.00
2023-12-14T07:40:52.891Z,620.00
2023-12-14T07:41:52.844Z,618.00
2023-12-14T07:42:52.827Z,614.00
2023-12-14T07:43:52.871Z,619.00
2023-12-14T07:44:52.961Z,626.00
2023-12-14T07:45:52.865Z,618.00
2023-12-14T07:46:52.872Z,611.00
2023-12-14T07:47:52.970Z,609.00
2023-12-14T07:48:52.888Z,600.00
2023-12-14T07:49:52.877Z,600.00
2023-12-14T07:50:52.854Z,603.00
2023-12-14T07:51:52.853Z,600.00
2023-12-14T07:52:52.853Z,606.00
2023-12-14T07:53:52.878Z,610.00
2023-12-14T07:54:52.880Z,613.00
2023-12-14T07:55:52.933Z,625.00
2023-12-14T07:56:52.861Z,631.00
2023-12-14T07:57:53.465Z,643.00
2023-12-14T07:58:53.101Z,647.00
2023-12-14T07:59:52.980Z,652.00
2023-12-14T08:00:52.945Z,657.00
2023-12-14T08:01:52.918Z,676.00
2023-12-14T08:02:52.893Z,682.00
2023-12-14T08:03:52.962Z,682.00
2023-12-14T08:04:52.948Z,662.00
2023-12-14T08:05:52.963Z,661.00
2023-12-14T08:06:52.937Z,660.00
2023-12-14T08:07:52.904Z,656.00
2023-12-14T08:08:52.891Z,649.00
2023-12-14T08:09:52.932Z,652.00
2023-12-14T08:10:52.941Z,645.00
2023-12-14T08:11:52.911Z,650.00
2023-12-14T08:12:52.913Z,656.00
2023-12-14T08:13:52.944Z,647.00
2023-12-14T08:14:53.444Z,650.00
2023-12-14T08:15:52.884Z,652.00
2023-12-14T08:16:52.911Z,658.00
2023-12-14T08:17:52.930Z,657.00
2023-12-14T08:18:52.915Z,664.00
2023-12-14T08:19:52.931Z,674.00
2023-12-14T08:20:52.923Z,674.00
2023-12-14T08:21:52.940Z,665.00
2023-12-14T08:22:52.945Z,684.00
2023-12-14T08:23:52.914Z,679.00
2023-12-14T08:24:52.929Z,686.00
2023-12-14T08:25:52.927Z,700.00
2023-12-14T08:26:52.877Z,664.00
2023-12-14T08:27:53.002Z,653.00
2023-12-14T08:28:53.058Z,659.00
2023-12-14T08:29:52.968Z,666.00
2023-12-14T08:30:53.017Z,675.00
2023-12-14T08:31:52.991Z,685.00
2023-12-14T08:32:53.067Z,701.00
2023-12-14T08:33:53.056Z,719.00
2023-12-14T08:34:52.996Z,718.00
2023-12-14T08:35:52.921Z,719.00
2023-12-14T08:36:52.927Z,713.00
2023-12-14T08:37:52.958Z,724.00
2023-12-14T08:38:53.918Z,708.00
2023-12-14T08:39:55.521Z,691.00
2023-12-14T08:40:52.999Z,706.00
2023-12-14T08:41:52.915Z,709.00
2023-12-14T08:42:52.932Z,719.00
2023-12-14T08:43:52.951Z,718.00
2023-12-14T08:44:52.945Z,695.00
2023-12-14T08:45:52.957Z,666.00
2023-12-14T08:46:52.941Z,659.00
2023-12-14T08:47:52.985Z,658.00
2023-12-14T08:48:53.041Z,660.00
2023-12-14T08:49:53.006Z,662.00
2023-12-14T08:50:52.964Z,662.00
2023-12-14T08:51:52.924Z,656.00
2023-12-14T08:52:53.317Z,658.00
2023-12-14T08:53:52.962Z,665.00
2023-12-14T08:54:52.942Z,666.00
2023-12-14T08:55:53.092Z,681.00
2023-12-14T08:56:52.969Z,691.00
2023-12-14T08:57:52.977Z,696.00
2023-12-14T08:58:53.005Z,705.00
2023-12-14T08:59:52.940Z,698.00
2023-12-14T09:00:52.962Z,704.00
2023-12-14T09:01:53.074Z,703.00
2023-12-14T09:02:53.198Z,710.00
2023-12-14T09:03:53.020Z,712.00
2023-12-14T09:04:53.118Z,716.00
2023-12-14T09:05:53.063Z,720.00
2023-12-14T09:06:52.982Z,717.00
2023-12-14T09:07:53.008Z,726.00
2023-12-14T09:08:52.946Z,714.00
2023-12-14T09:09:52.967Z,706.00
2023-12-14T09:10:52.999Z,701.00
2023-12-14T09:11:54.915Z,699.00
2023-12-14T09:12:53.052Z,700.00
2023-12-14T09:13:53.125Z,707.00
2023-12-14T09:14:53.138Z,716.00
2023-12-14T09:15:53.162Z,738.00
2023-12-14T09:16:53.201Z,758.00
2023-12-14T09:17:53.315Z,767.00
2023-12-14T09:18:53.242Z,754.00
2023-12-14T09:19:53.528Z,740.00
2023-12-14T09:20:53.197Z,751.00
2023-12-14T09:21:53.202Z,751.00
2023-12-14T09:22:53.231Z,747.00
2023-12-14T09:23:53.224Z,749.00
2023-12-14T09:24:53.784Z,735.00
2023-12-14T09:25:53.275Z,740.00
2023-12-14T09:26:53.302Z,731.00
2023-12-14T09:27:53.255Z,709.00
2023-12-14T09:28:53.309Z,710.00
2023-12-14T09:29:53.475Z,716.00
2023-12-14T09:30:53.339Z,728.00
2023-12-14T09:31:53.477Z,737.00
2023-12-14T09:32:53.536Z,731.00
2023-12-14T09:33:53.380Z,723.00
2023-12-14T09:34:53.558Z,724.00
2023-12-14T09:35:53.459Z,718.00
2023-12-14T09:36:54.502Z,712.00
2023-12-14T09:37:53.564Z,708.00
2023-12-14T09:38:53.581Z,722.00
2023-12-14T09:39:53.644Z,734.00
2023-12-14T09:40:53.788Z,727.00
2023-12-14T09:41:53.657Z,697.00
2023-12-14T09:42:53.616Z,691.00
2023-12-14T09:43:53.718Z,703.00
2023-12-14T09:44:53.990Z,699.00
2023-12-14T09:45:53.743Z,705.00
2023-12-14T09:46:53.817Z,699.00
2023-12-14T09:47:54.028Z,695.00
2023-12-14T09:48:53.939Z,711.00
2023-12-14T09:49:54.158Z,718.00
2023-12-14T09:50:53.980Z,723.00
2023-12-14T09:51:53.995Z,732.00
2023-12-14T09:52:54.053Z,732.00
2023-12-14T09:53:54.113Z,737.00
2023-12-14T09:54:56.001Z,742.00
2023-12-14T09:55:54.223Z,747.00
2023-12-14T09:56:54.272Z,748.00
2023-12-14T09:57:54.287Z,745.00
2023-12-14T09:58:54.397Z,742.00
2023-12-14T09:59:54.468Z,736.00
2023-12-14T10:00:54.475Z,733.00
2023-12-14T10:01:54.563Z,744.00
2023-12-14T10:02:54.594Z,740.00
2023-12-14T10:03:54.667Z,752.00
2023-12-14T10:04:54.807Z,742.00
2023-12-14T10:05:55.029Z,737.00
2023-12-14T10:06:54.850Z,750.00
2023-12-14T10:07:54.935Z,740.00
2023-12-14T10:08:55.009Z,752.00
2023-12-14T10:09:55.078Z,770.00
2023-12-14T10:10:55.161Z,771.00
2023-12-14T10:11:55.170Z,774.00
2023-12-14T10:12:55.285Z,771.00
2023-12-14T10:13:55.352Z,761.00
2023-12-14T10:14:55.425Z,759.00
2023-12-14T10:15:55.431Z,739.00
2023-12-14T10:17:55.963Z,733.00
2023-12-14T10:18:55.727Z,708.00
2023-12-14T10:19:56.078Z,701.00
2023-12-14T10:20:55.751Z,707.00
2023-12-14T10:21:55.819Z,712.00
2023-12-14T10:22:55.904Z,721.00
2023-12-14T10:23:55.964Z,715.00
2023-12-14T10:24:56.520Z,720.00
2023-12-14T10:25:56.145Z,716.00
2023-12-14T10:26:56.185Z,714.00
2023-12-14T10:27:56.245Z,717.00
2023-12-14T10:28:56.341Z,708.00
2023-12-14T10:29:56.390Z,685.00
2023-12-14T10:30:56.475Z,678.00
2023-12-14T10:31:56.522Z,668.00
2023-12-14T10:32:56.665Z,662.00
2023-12-14T10:33:56.732Z,663.00
2023-12-14T10:34:57.009Z,659.00
2023-12-14T10:35:56.753Z,655.00
2023-12-14T10:36:56.778Z,663.00
2023-12-14T10:37:56.959Z,663.00
2023-12-14T10:38:56.947Z,659.00
2023-12-14T10:39:57.050Z,662.00
2023-12-14T10:40:57.050Z,665.00
2023-12-14T10:42:00.805Z,673.00
2023-12-14T10:42:58.046Z,674.00
2023-12-14T10:45:11.874Z,700.00
2023-12-14T10:45:58.205Z,677.00
2023-12-14T10:46:57.135Z,684.00
2023-12-14T10:47:57.157Z,688.00
2023-12-14T10:48:57.228Z,694.00
2023-12-14T10:49:57.544Z,696.00
2023-12-14T10:50:58.012Z,688.00
2023-12-14T10:51:57.292Z,707.00
2023-12-14T10:52:57.326Z,708.00
2023-12-14T10:53:57.310Z,703.00
2023-12-14T10:54:57.515Z,710.00
2023-12-14T10:55:57.463Z,695.00
2023-12-14T10:56:57.483Z,692.00
2023-12-14T10:57:57.560Z,677.00
2023-12-14T10:58:57.643Z,680.00
2023-12-14T10:59:58.032Z,671.00
2023-12-14T11:00:57.777Z,668.00
2023-12-14T11:01:57.788Z,664.00
2023-12-14T11:02:57.773Z,657.00
2023-12-14T11:03:57.948Z,657.00
2023-12-14T11:04:58.050Z,658.00
2023-12-14T11:06:06.915Z,657.00
2023-12-14T11:06:59.080Z,657.00
2023-12-14T11:07:58.040Z,653.00
2023-12-14T11:08:58.077Z,647.00
2023-12-14T11:09:58.022Z,647.00
2023-12-14T11:10:58.055Z,642.00
2023-12-14T11:11:58.049Z,642.00
2023-12-14T11:12:57.999Z,640.00
2023-12-14T11:13:58.024Z,639.00
2023-12-14T11:14:58.111Z,633.00
2023-12-14T11:15:58.531Z,630.00
2023-12-14T11:16:58.267Z,636.00
2023-12-14T11:17:58.343Z,628.00
2023-12-14T11:18:58.351Z,628.00
2023-12-14T11:19:58.375Z,627.00
2023-12-14T11:20:58.413Z,621.00
2023-12-14T11:21:58.413Z,619.00
2023-12-14T11:22:58.478Z,619.00
2023-12-14T11:23:58.444Z,617.00
2023-12-14T11:24:59.014Z,615.00
2023-12-14T11:25:59.831Z,608.00
2023-12-14T11:26:58.543Z,607.00
2023-12-14T11:27:58.516Z,605.00
2023-12-14T11:28:58.546Z,607.00
2023-12-14T11:29:58.576Z,602.00
2023-12-14T11:30:58.641Z,604.00
2023-12-14T11:31:58.518Z,601.00
2023-12-14T11:32:58.569Z,601.00
2023-12-14T11:33:58.607Z,602.00
2023-12-14T11:34:58.545Z,604.00
2023-12-14T11:35:59.530Z,600.00
2023-12-14T11:36:58.572Z,604.00
2023-12-14T11:37:58.644Z,601.00
2023-12-14T11:39:00.505Z,602.00
2023-12-14T11:39:58.610Z,600.00
2023-12-14T11:40:59.045Z,602.00
2023-12-14T11:41:58.610Z,601.00
2023-12-14T11:42:58.634Z,603.00
2023-12-14T11:43:58.699Z,603.00
2023-12-14T11:44:58.690Z,601.00
2023-12-14T11:45:59.012Z,604.00
2023-12-14T11:46:58.786Z,604.00
2023-12-14T11:47:58.824Z,602.00
2023-12-14T11:48:58.866Z,603.00
2023-12-14T11:49:58.801Z,599.00
2023-12-14T11:50:58.823Z,603.00
2023-12-14T11:51:58.831Z,601.00
2023-12-14T11:52:58.938Z,601.00
2023-12-14T11:53:58.870Z,600.00
2023-12-14T11:54:58.906Z,603.00
2023-12-14T11:55:59.062Z,600.00
2023-12-14T11:56:59.146Z,606.00
2023-12-14T11:57:59.038Z,603.00
2023-12-14T11:58:59.082Z,605.00
2023-12-14T11:59:59.088Z,602.00
2023-12-14T12:00:59.579Z,602.00
2023-12-14T12:01:59.140Z,606.00
2023-12-14T12:02:59.128Z,607.00
2023-12-14T12:03:59.184Z,604.00
2023-12-14T12:04:59.314Z,606.00
2023-12-14T12:05:59.322Z,602.00
2023-12-14T12:07:00.044Z,604.00
2023-12-14T12:07:59.333Z,603.00
2023-12-14T12:08:59.314Z,604.00
2023-12-14T12:09:59.423Z,601.00
2023-12-14T12:10:59.416Z,602.00
2023-12-14T12:11:59.483Z,602.00
2023-12-14T12:12:59.456Z,606.00
2023-12-14T12:13:59.545Z,603.00
2023-12-14T12:14:59.487Z,602.00
2023-12-14T12:15:59.583Z,603.00
2023-12-14T12:16:59.517Z,604.00
2023-12-14T12:17:59.570Z,605.00
2023-12-14T12:18:59.654Z,600.00
2023-12-14T12:19:59.667Z,604.00
2023-12-14T12:21:00.063Z,601.00
2023-12-14T12:21:59.605Z,606.00
2023-12-14T12:22:59.674Z,614.00
2023-12-14T12:23:59.628Z,621.00
2023-12-14T12:25:08.532Z,624.00
2023-12-14T12:26:00.676Z,624.00
2023-12-14T12:26:59.647Z,625.00
2023-12-14T12:27:59.658Z,620.00
2023-12-14T12:28:59.747Z,623.00
2023-12-14T12:29:59.687Z,623.00
2023-12-14T12:31:00.083Z,622.00
2023-12-14T12:31:59.735Z,621.00